Airfield :
LOGIN :

Register | Disclaimer

   EN    FR    IT 

 










Legend :    VFR   Marginal VFR   IFR   Intensive IFR   Very Intensive IFR
Visi :
Ceiling :
>= 8 km
>= 3000ft
5 to 8 km
1000 to 3000 ft
1500m to 5 km
500 to 1000 ft
800 to 1500m
200 to 500 ft
< 800m
< 200 ft
Symbols :   Thunderstorms  Fog  Heavy snow  Heavy precipitations  Wind > 20 kt
SIGMETs :     Misc.  Thunderstorms  Icing  Turbulence  Mountain Waves  Volcanic Ashes






- Airport Elevation : 464 ft
- IATA code : EVX


LFOE - Evreux

CURRENT METAR :
  • 230730Z AUTO 08006KT CAVOK 11/10 Q1014 BECMG BKN008

EXPIRED METARs :
  • 230700Z AUTO 06006KT CAVOK 11/10 Q1014 BECMG BKN008
  • 230630Z AUTO 05006KT CAVOK 11/09 Q1014 BECMG BKN008
  • 230600Z AUTO /////KT CAVOK 11/10 Q1014
  • 230530Z AUTO /////KT 9999 FEW021 OVC110 10/09 Q1014
  • 230500Z AUTO 03007KT CAVOK 11/09 Q1014 TEMPO BKN010

TAF AMD TAF LFOE
Valid from the 23 at 05:00 until the 24 at 03:00 UTC


230527Z 2305/2403 06005KT 9999 SCT020
BECMG 2306/2308 BKN004
BECMG 2308/2310 BKN008
BECMG 2312/2314 SCT015
TEMPO 2322/2403 4000 BR



MET'MAP, your aeronautical weather chart ! - Copyright ORBIFLY December 2007 - Disclaimer

ORBIFLY MET'MAP TEAM :

Programming & Development : Alexandra Zaïnal
Concept & Development : Baudouin d'Aumeries
Co-Development & Prog : Marc-Olivier Méhu
Technical & hardware support : Manuel Goepfert

Contact : metmap@orbifly.com




SOURCES & CREDITS :

   NOAA